Time;durP1;ratioP1;P1;durP2;ratioP2;P2;SDS_P1;SDS_P2;PMS_P1;PMS_P2;Temp;Humidity;BMP_temperature;BMP_pressure;BME280_temperature;BME280_humidity;BME280_pressure;Samples;Min_cycle;Max_cycle;Signal;HPM_P1;HPM_P2
2022/04/13 00:01:30;;;;;;;2.33;1.47;;;;;;;;;;1761602;81;21084;-72
2022/04/13 00:03:57;;;;;;;4.28;1.62;;;;;;;;;;1740556;81;21079;-71
2022/04/13 00:06:23;;;;;;;2.98;1.75;;;;;;;;;;1728251;83;21496;-71
2022/04/13 00:08:50;;;;;;;4.10;1.50;;;;;;;;;;1728400;83;20972;-71
2022/04/13 00:11:18;;;;;;;5.20;2.20;;;;;;;;;;1728115;83;21059;-71
2022/04/13 00:13:44;;;;;;;5.95;2.27;;;;;;;;;;1722111;83;21552;-70
2022/04/13 00:16:11;;;;;;;5.30;2.27;;;;;;;;;;1712708;83;21064;-70
2022/04/13 00:18:38;;;;;;;4.10;2.20;;;;;;;;;;1712573;84;21021;-70
2022/04/13 00:21:04;;;;;;;2.50;1.77;;;;;;;;;;1712955;84;21069;-71
2022/04/13 00:23:31;;;;;;;4.08;1.85;;;;;;;;;;1712662;83;21064;-72
2022/04/13 00:25:58;;;;;;;3.75;1.70;;;;;;;;;;1712398;83;21103;-70
2022/04/13 00:28:25;;;;;;;2.40;1.52;;;;;;;;;;1712357;83;21548;-71
2022/04/13 00:30:52;;;;;;;2.15;1.60;;;;;;;;;;1712226;84;21084;-71
2022/04/13 00:33:18;;;;;;;1.72;1.37;;;;;;;;;;1712527;83;21078;-70
2022/04/13 00:35:45;;;;;;;1.87;1.45;;;;;;;;;;1712303;83;21040;-71
2022/04/13 00:38:12;;;;;;;2.37;1.40;;;;;;;;;;1712452;84;21045;-71
2022/04/13 00:40:42;;;;;;;1.67;1.47;;;;;;;;;;1712256;83;21056;-71
2022/04/13 00:43:08;;;;;;;1.62;1.40;;;;;;;;;;1712310;83;21076;-71
2022/04/13 00:45:35;;;;;;;2.37;1.87;;;;;;;;;;1712464;83;21524;-71
2022/04/13 00:48:01;;;;;;;2.05;1.52;;;;;;;;;;1712271;84;21041;-70
2022/04/13 00:50:28;;;;;;;2.52;1.60;;;;;;;;;;1712305;83;21037;-70
2022/04/13 00:52:54;;;;;;;3.80;1.55;;;;;;;;;;1712134;83;21120;-70
2022/04/13 00:55:24;;;;;;;2.27;1.50;;;;;;;;;;1712205;83;21060;-70
2022/04/13 00:57:50;;;;;;;4.83;2.45;;;;;;;;;;1712338;84;21045;-70
2022/04/13 01:03:28;;;;;;;4.50;2.10;;;;;;;;;;1741299;80;74428;-71
2022/04/13 01:05:53;;;;;;;4.10;2.10;;;;;;;;;;1708080;83;21053;-70
2022/04/13 01:08:20;;;;;;;5.90;2.15;;;;;;;;;;1693962;85;21705;-70
2022/04/13 01:10:48;;;;;;;2.22;1.47;;;;;;;;;;1693673;85;21032;-70
2022/04/13 01:13:14;;;;;;;2.70;1.62;;;;;;;;;;1693941;85;21543;-70
2022/04/13 01:15:41;;;;;;;1.52;1.35;;;;;;;;;;1693933;85;21053;-70
2022/04/13 01:18:07;;;;;;;3.40;1.60;;;;;;;;;;1693807;85;21060;-69
2022/04/13 01:20:39;;;;;;;2.30;1.60;;;;;;;;;;1693974;85;21041;-70
2022/04/13 01:23:06;;;;;;;3.95;1.60;;;;;;;;;;1693642;85;21045;-71
2022/04/13 01:25:32;;;;;;;1.52;1.30;;;;;;;;;;1693954;85;21084;-70
2022/04/13 01:27:59;;;;;;;5.25;1.55;;;;;;;;;;1693835;85;21056;-70
2022/04/13 01:30:26;;;;;;;3.08;1.67;;;;;;;;;;1693766;85;21558;-70
2022/04/13 01:32:54;;;;;;;4.03;1.50;;;;;;;;;;1693964;85;21570;-70
2022/04/13 01:35:22;;;;;;;5.22;2.40;;;;;;;;;;1693731;85;21033;-71
2022/04/13 01:37:50;;;;;;;2.30;1.60;;;;;;;;;;1694037;85;21064;-70
2022/04/13 01:40:16;;;;;;;1.87;1.60;;;;;;;;;;1693788;85;21084;-70
2022/04/13 01:42:47;;;;;;;1.85;1.60;;;;;;;;;;1693936;84;21048;-70
2022/04/13 01:45:13;;;;;;;2.58;1.60;;;;;;;;;;1693753;85;21127;-70
2022/04/13 01:47:39;;;;;;;1.67;1.50;;;;;;;;;;1693886;85;21052;-70
2022/04/13 01:50:08;;;;;;;2.15;1.45;;;;;;;;;;1693966;85;21037;-70
2022/04/13 01:52:34;;;;;;;2.00;1.45;;;;;;;;;;1693739;85;21516;-70
2022/04/13 01:55:01;;;;;;;3.42;1.70;;;;;;;;;;1693759;85;21080;-70
2022/04/13 01:57:27;;;;;;;4.72;1.70;;;;;;;;;;1694104;84;21040;-70
2022/04/13 01:59:54;;;;;;;1.60;1.47;;;;;;;;;;1693637;85;21024;-70
2022/04/13 02:02:20;;;;;;;2.83;1.70;;;;;;;;;;1694147;85;21539;-70
2022/04/13 02:04:48;;;;;;;1.77;1.30;;;;;;;;;;1694638;83;21565;-71
2022/04/13 02:07:14;;;;;;;2.90;1.82;;;;;;;;;;1695119;83;21080;-70
2022/04/13 02:09:41;;;;;;;3.65;2.00;;;;;;;;;;1694850;84;21563;-69
2022/04/13 02:12:09;;;;;;;2.95;1.80;;;;;;;;;;1694937;84;21103;-69
2022/04/13 02:14:36;;;;;;;4.53;2.20;;;;;;;;;;1695043;84;21512;-69
2022/04/13 02:17:02;;;;;;;4.10;2.20;;;;;;;;;;1694935;85;21068;-70
2022/04/13 02:19:29;;;;;;;4.20;2.00;;;;;;;;;;1695114;85;21009;-70
2022/04/13 02:21:55;;;;;;;5.78;2.40;;;;;;;;;;1695236;84;21477;-70
2022/04/13 02:24:22;;;;;;;5.37;2.67;;;;;;;;;;1695118;84;21053;-70
2022/04/13 02:26:49;;;;;;;6.95;2.58;;;;;;;;;;1694878;85;21037;-70
2022/04/13 02:29:15;;;;;;;6.65;2.17;;;;;;;;;;1694841;85;21595;-70
2022/04/13 02:31:41;;;;;;;3.40;1.70;;;;;;;;;;1695327;85;21588;-70
2022/04/13 02:34:07;;;;;;;4.75;2.25;;;;;;;;;;1694816;85;21107;-70
2022/04/13 02:36:35;;;;;;;2.10;1.65;;;;;;;;;;1695176;85;21119;-70
2022/04/13 02:39:03;;;;;;;1.82;1.45;;;;;;;;;;1694841;85;21056;-69
2022/04/13 02:41:30;;;;;;;2.27;1.50;;;;;;;;;;1695210;85;21021;-69
2022/04/13 02:43:56;;;;;;;1.90;1.30;;;;;;;;;;1694874;83;21068;-71
2022/04/13 02:46:22;;;;;;;2.10;1.45;;;;;;;;;;1694970;85;21100;-70
2022/04/13 02:48:49;;;;;;;3.00;1.50;;;;;;;;;;1695025;85;21107;-70
2022/04/13 02:51:16;;;;;;;2.15;1.52;;;;;;;;;;1695094;84;21127;-70
2022/04/13 02:53:42;;;;;;;2.55;1.60;;;;;;;;;;1694877;85;21091;-70
2022/04/13 02:56:08;;;;;;;2.60;1.55;;;;;;;;;;1694976;85;21064;-70
2022/04/13 02:58:34;;;;;;;3.98;1.85;;;;;;;;;;1694860;85;21020;-70
2022/04/13 03:01:03;;;;;;;2.00;1.50;;;;;;;;;;1695056;84;21563;-72
2022/04/13 03:03:29;;;;;;;1.60;1.35;;;;;;;;;;1694876;83;21558;-70
2022/04/13 03:05:55;;;;;;;2.05;1.50;;;;;;;;;;1694890;85;21017;-71
2022/04/13 03:08:21;;;;;;;2.72;1.70;;;;;;;;;;1694939;85;21076;-71
2022/04/13 03:10:47;;;;;;;2.77;2.00;;;;;;;;;;1695068;85;21100;-71
2022/04/13 03:13:15;;;;;;;2.27;1.37;;;;;;;;;;1695162;85;21025;-70
2022/04/13 03:15:42;;;;;;;2.33;1.30;;;;;;;;;;1694921;85;21080;-70
2022/04/13 03:18:09;;;;;;;1.75;1.40;;;;;;;;;;1695287;85;21092;-70
2022/04/13 03:20:35;;;;;;;2.77;1.55;;;;;;;;;;1694946;85;21025;-70
2022/04/13 03:23:02;;;;;;;3.98;1.80;;;;;;;;;;1695175;85;21615;-70
2022/04/13 03:25:29;;;;;;;2.80;1.67;;;;;;;;;;1694905;83;21127;-70
2022/04/13 03:27:57;;;;;;;3.77;1.55;;;;;;;;;;1694880;83;21567;-70
2022/04/13 03:30:23;;;;;;;2.00;1.70;;;;;;;;;;1695179;85;21540;-70
2022/04/13 03:32:55;;;;;;;2.15;1.50;;;;;;;;;;1694831;85;21040;-70
2022/04/13 03:35:19;;;;;;;2.80;1.70;;;;;;;;;;1694378;85;21592;-70
2022/04/13 03:37:46;;;;;;;1.98;1.40;;;;;;;;;;1694945;85;21013;-70
2022/04/13 03:40:12;;;;;;;3.12;1.70;;;;;;;;;;1694908;85;21052;-70
2022/04/13 03:42:41;;;;;;;3.92;1.75;;;;;;;;;;1695215;85;21513;-70
2022/04/13 03:45:11;;;;;;;1.57;1.47;;;;;;;;;;1694818;85;21076;-70
2022/04/13 03:47:39;;;;;;;3.80;1.90;;;;;;;;;;1695118;85;21040;-70
2022/04/13 03:50:07;;;;;;;2.85;1.62;;;;;;;;;;1694780;85;21551;-70
2022/04/13 03:52:34;;;;;;;2.52;1.72;;;;;;;;;;1694862;85;21590;-70
2022/04/13 03:55:00;;;;;;;3.10;1.90;;;;;;;;;;1695282;85;21148;-70
2022/04/13 03:57:28;;;;;;;1.87;1.32;;;;;;;;;;1694850;85;21623;-70
2022/04/13 03:59:54;;;;;;;1.77;1.47;;;;;;;;;;1694982;84;21072;-70
2022/04/13 04:02:20;;;;;;;2.27;1.70;;;;;;;;;;1695046;85;21048;-70
2022/04/13 04:04:46;;;;;;;3.08;1.50;;;;;;;;;;1695148;83;21139;-70
2022/04/13 04:07:13;;;;;;;2.65;1.55;;;;;;;;;;1695349;85;21080;-71
2022/04/13 04:09:40;;;;;;;2.83;1.50;;;;;;;;;;1695070;85;21675;-70
2022/04/13 04:12:07;;;;;;;2.33;1.47;;;;;;;;;;1695301;85;21075;-70
2022/04/13 04:14:34;;;;;;;3.50;2.02;;;;;;;;;;1695154;85;21044;-71
2022/04/13 04:17:00;;;;;;;3.80;1.67;;;;;;;;;;1695155;85;21048;-71
2022/04/13 04:19:28;;;;;;;5.65;2.37;;;;;;;;;;1695082;85;21064;-70
2022/04/13 04:21:55;;;;;;;4.45;2.00;;;;;;;;;;1695063;85;21123;-70
2022/04/13 04:24:21;;;;;;;3.17;1.65;;;;;;;;;;1695116;84;21044;-71
2022/04/13 04:26:50;;;;;;;4.25;1.98;;;;;;;;;;1695066;85;21650;-71
2022/04/13 04:29:16;;;;;;;4.35;1.92;;;;;;;;;;1695042;85;21072;-71
2022/04/13 04:31:51;;;;;;;3.87;2.08;;;;;;;;;;1695382;85;21060;-71
2022/04/13 04:34:18;;;;;;;2.35;1.62;;;;;;;;;;1695213;85;21036;-71
2022/04/13 04:36:44;;;;;;;6.83;2.52;;;;;;;;;;1695314;85;21552;-71
2022/04/13 04:39:10;;;;;;;4.65;2.00;;;;;;;;;;1694942;85;21593;-70
2022/04/13 04:41:36;;;;;;;8.95;3.02;;;;;;;;;;1695147;84;21033;-70
2022/04/13 04:44:05;;;;;;;6.35;2.40;;;;;;;;;;1695260;85;21524;-70
2022/04/13 04:46:31;;;;;;;5.33;2.40;;;;;;;;;;1695227;85;21520;-69
2022/04/13 04:48:57;;;;;;;5.55;2.22;;;;;;;;;;1695359;85;21076;-70
2022/04/13 04:51:24;;;;;;;4.92;2.50;;;;;;;;;;1695040;85;21115;-70
2022/04/13 04:53:50;;;;;;;5.33;2.20;;;;;;;;;;1695232;85;21111;-70
2022/04/13 04:56:16;;;;;;;6.55;2.60;;;;;;;;;;1695059;85;21063;-70
2022/04/13 04:58:44;;;;;;;5.45;2.30;;;;;;;;;;1694994;85;21092;-70
2022/04/13 05:01:11;;;;;;;4.12;2.62;;;;;;;;;;1695212;85;21104;-71
2022/04/13 05:03:38;;;;;;;3.20;2.05;;;;;;;;;;1695014;83;21128;-71
2022/04/13 05:06:06;;;;;;;5.45;2.40;;;;;;;;;;1694793;85;21056;-71
2022/04/13 05:08:32;;;;;;;3.77;2.00;;;;;;;;;;1695088;85;21496;-71
2022/04/13 05:11:00;;;;;;;4.12;2.30;;;;;;;;;;1694946;84;21056;-71
2022/04/13 05:13:26;;;;;;;4.15;2.10;;;;;;;;;;1695183;85;21120;-71
2022/04/13 05:15:54;;;;;;;4.55;2.40;;;;;;;;;;1694838;85;21052;-71
2022/04/13 05:18:21;;;;;;;3.75;2.40;;;;;;;;;;1695217;85;21547;-71
2022/04/13 05:20:47;;;;;;;4.10;2.33;;;;;;;;;;1694787;84;21056;-71
2022/04/13 05:23:16;;;;;;;5.20;2.35;;;;;;;;;;1695165;85;21072;-71
2022/04/13 05:25:42;;;;;;;4.83;2.40;;;;;;;;;;1695156;85;21081;-71
2022/04/13 05:28:08;;;;;;;4.62;2.20;;;;;;;;;;1695049;83;21068;-71
2022/04/13 05:30:35;;;;;;;4.87;2.05;;;;;;;;;;1695115;85;21079;-71
2022/04/13 05:33:01;;;;;;;6.47;2.37;;;;;;;;;;1695001;85;21103;-71
2022/04/13 05:35:28;;;;;;;3.85;2.12;;;;;;;;;;1695101;85;21119;-71
2022/04/13 05:37:56;;;;;;;7.50;3.22;;;;;;;;;;1694933;85;21607;-70
2022/04/13 05:40:24;;;;;;;5.37;2.47;;;;;;;;;;1695107;85;21088;-71
2022/04/13 05:42:53;;;;;;;6.87;2.30;;;;;;;;;;1694970;85;21193;-71
2022/04/13 05:45:19;;;;;;;5.70;2.60;;;;;;;;;;1694838;85;21088;-70
2022/04/13 05:47:45;;;;;;;5.92;2.42;;;;;;;;;;1695155;85;21072;-71
2022/04/13 05:50:13;;;;;;;7.50;2.98;;;;;;;;;;1694903;84;21591;-71
2022/04/13 05:52:40;;;;;;;6.75;2.92;;;;;;;;;;1695267;85;21064;-71
2022/04/13 05:55:07;;;;;;;5.83;2.37;;;;;;;;;;1695236;85;21112;-71
2022/04/13 05:57:33;;;;;;;9.90;3.20;;;;;;;;;;1695259;85;21527;-70
2022/04/13 05:59:59;;;;;;;4.72;2.45;;;;;;;;;;1695259;84;21028;-71
2022/04/13 06:02:28;;;;;;;4.12;2.45;;;;;;;;;;1694999;85;21096;-70
2022/04/13 06:04:55;;;;;;;4.33;2.20;;;;;;;;;;1694996;83;21140;-69
2022/04/13 06:07:21;;;;;;;3.75;1.92;;;;;;;;;;1695324;85;21453;-70
2022/04/13 06:09:49;;;;;;;4.50;2.30;;;;;;;;;;1694900;85;21037;-70
2022/04/13 06:12:22;;;;;;;5.50;2.35;;;;;;;;;;1695589;85;21543;-70
2022/04/13 06:14:49;;;;;;;5.92;2.47;;;;;;;;;;1695255;85;21075;-69
2022/04/13 06:17:19;;;;;;;3.20;2.10;;;;;;;;;;1695332;84;21080;-70
2022/04/13 06:19:46;;;;;;;3.67;2.47;;;;;;;;;;1695184;85;21067;-70
2022/04/13 06:22:13;;;;;;;3.00;1.85;;;;;;;;;;1694909;85;21488;-70
2022/04/13 06:24:39;;;;;;;4.87;2.77;;;;;;;;;;1695061;85;21107;-71
2022/04/13 06:27:05;;;;;;;5.70;2.22;;;;;;;;;;1695138;85;21041;-71
2022/04/13 06:29:31;;;;;;;4.00;2.58;;;;;;;;;;1695088;85;21409;-71
2022/04/13 06:31:59;;;;;;;9.53;2.58;;;;;;;;;;1695123;85;21524;-70
2022/04/13 06:34:25;;;;;;;7.40;2.30;;;;;;;;;;1694947;84;21021;-70
2022/04/13 06:36:52;;;;;;;4.75;2.35;;;;;;;;;;1695249;85;21076;-71
2022/04/13 06:39:20;;;;;;;4.75;2.52;;;;;;;;;;1694839;85;21088;-70
2022/04/13 06:41:47;;;;;;;3.47;2.00;;;;;;;;;;1695176;83;21080;-71
2022/04/13 06:44:13;;;;;;;5.03;2.20;;;;;;;;;;1694886;83;21041;-71
2022/04/13 06:46:39;;;;;;;7.75;2.83;;;;;;;;;;1694932;85;21121;-70
2022/04/13 06:49:07;;;;;;;4.60;2.45;;;;;;;;;;1695101;85;21040;-70
2022/04/13 06:51:34;;;;;;;4.58;2.22;;;;;;;;;;1694908;85;21068;-70
2022/04/13 06:54:00;;;;;;;5.35;2.60;;;;;;;;;;1695280;85;21143;-70
2022/04/13 06:56:27;;;;;;;7.50;3.15;;;;;;;;;;1694965;85;21089;-70
2022/04/13 06:58:54;;;;;;;7.33;2.62;;;;;;;;;;1694886;85;21566;-71
2022/04/13 07:01:21;;;;;;;7.83;2.85;;;;;;;;;;1695111;85;21064;-71
2022/04/13 07:03:47;;;;;;;7.70;3.05;;;;;;;;;;1694858;83;21108;-71
2022/04/13 07:06:13;;;;;;;5.45;2.60;;;;;;;;;;1694102;83;21116;-71
2022/04/13 07:08:40;;;;;;;8.40;2.72;;;;;;;;;;1693766;85;21104;-71
2022/04/13 07:11:07;;;;;;;7.10;3.05;;;;;;;;;;1693963;85;21325;-70
2022/04/13 07:13:35;;;;;;;7.10;3.47;;;;;;;;;;1693714;85;21060;-70
2022/04/13 07:16:03;;;;;;;6.33;3.50;;;;;;;;;;1693701;85;21092;-70
2022/04/13 07:18:30;;;;;;;7.72;3.27;;;;;;;;;;1694007;85;21076;-69
2022/04/13 07:20:57;;;;;;;8.43;3.60;;;;;;;;;;1693869;85;21071;-70
2022/04/13 07:23:24;;;;;;;5.58;2.75;;;;;;;;;;1694108;85;21067;-70
2022/04/13 07:25:51;;;;;;;9.23;3.30;;;;;;;;;;1693649;85;21072;-70
2022/04/13 07:28:17;;;;;;;7.22;3.35;;;;;;;;;;1693770;85;21033;-70
2022/04/13 07:30:45;;;;;;;7.20;3.22;;;;;;;;;;1693836;85;21040;-70
2022/04/13 07:33:11;;;;;;;6.22;2.45;;;;;;;;;;1693847;84;21036;-70
2022/04/13 07:35:38;;;;;;;7.33;2.85;;;;;;;;;;1693863;85;21048;-71
2022/04/13 07:38:05;;;;;;;7.17;2.80;;;;;;;;;;1693910;85;21080;-71
2022/04/13 07:40:31;;;;;;;7.17;3.08;;;;;;;;;;1693864;85;21112;-71
2022/04/13 07:42:57;;;;;;;6.55;2.62;;;;;;;;;;1693851;84;21095;-70
2022/04/13 07:45:23;;;;;;;6.17;3.00;;;;;;;;;;1694170;84;21048;-70
2022/04/13 07:47:51;;;;;;;6.22;2.65;;;;;;;;;;1693813;84;21076;-70
2022/04/13 07:50:17;;;;;;;6.28;2.67;;;;;;;;;;1693864;85;21069;-71
2022/04/13 07:52:43;;;;;;;7.37;2.85;;;;;;;;;;1694091;85;21100;-71
2022/04/13 07:55:10;;;;;;;6.95;3.00;;;;;;;;;;1693799;84;21076;-71
2022/04/13 07:57:37;;;;;;;5.85;2.80;;;;;;;;;;1693873;85;21016;-71
2022/04/13 08:00:04;;;;;;;7.70;2.80;;;;;;;;;;1693897;85;21630;-71
2022/04/13 08:02:34;;;;;;;6.20;2.65;;;;;;;;;;1692913;85;21052;-69
2022/04/13 08:05:00;;;;;;;5.90;3.00;;;;;;;;;;1693938;83;21607;-69
2022/04/13 08:07:26;;;;;;;8.25;3.08;;;;;;;;;;1695257;85;21085;-69
2022/04/13 08:09:53;;;;;;;7.72;2.87;;;;;;;;;;1695274;85;21563;-69
2022/04/13 08:12:19;;;;;;;7.15;2.80;;;;;;;;;;1695170;85;21064;-69
2022/04/13 08:14:46;;;;;;;5.95;3.00;;;;;;;;;;1694893;84;21060;-70
2022/04/13 08:17:14;;;;;;;6.60;3.20;;;;;;;;;;1695241;84;21072;-70
2022/04/13 08:19:40;;;;;;;5.03;2.80;;;;;;;;;;1694904;85;21048;-70
2022/04/13 08:22:06;;;;;;;6.47;3.08;;;;;;;;;;1695133;85;21017;-70
2022/04/13 08:24:33;;;;;;;4.47;2.50;;;;;;;;;;1695085;85;21056;-70
2022/04/13 08:26:59;;;;;;;6.37;3.27;;;;;;;;;;1695096;85;21562;-70
2022/04/13 08:29:26;;;;;;;4.75;2.77;;;;;;;;;;1695226;85;21036;-70
2022/04/13 08:31:52;;;;;;;6.05;2.55;;;;;;;;;;1694964;84;21112;-70
2022/04/13 08:34:18;;;;;;;6.83;2.40;;;;;;;;;;1695154;83;21072;-70
2022/04/13 08:36:45;;;;;;;4.25;2.30;;;;;;;;;;1695040;85;21021;-70
2022/04/13 08:39:14;;;;;;;10.30;2.90;;;;;;;;;;1695101;85;22085;-69
2022/04/13 08:41:51;;;;;;;5.22;2.45;;;;;;;;;;1695001;85;21056;-69
2022/04/13 08:44:20;;;;;;;5.70;2.87;;;;;;;;;;1695091;85;21052;-69
2022/04/13 08:46:47;;;;;;;5.42;2.75;;;;;;;;;;1692011;85;21049;-69
2022/04/13 08:49:13;;;;;;;6.15;2.80;;;;;;;;;;1695395;85;21568;-70
2022/04/13 08:51:40;;;;;;;6.50;2.98;;;;;;;;;;1695277;85;21100;-70
2022/04/13 08:54:11;;;;;;;6.40;3.17;;;;;;;;;;1695159;85;21056;-70
2022/04/13 08:56:39;;;;;;;8.00;3.05;;;;;;;;;;1694566;85;21088;-70
2022/04/13 08:59:20;;;;;;;4.85;2.87;;;;;;;;;;1695074;85;21048;-69
2022/04/13 09:01:48;;;;;;;5.80;2.47;;;;;;;;;;1693989;85;21627;-71
2022/04/13 09:04:15;;;;;;;8.38;2.80;;;;;;;;;;1695318;83;22129;-70
2022/04/13 09:06:43;;;;;;;7.78;2.58;;;;;;;;;;1694738;85;21017;-71
2022/04/13 09:09:11;;;;;;;6.83;2.80;;;;;;;;;;1695330;85;21052;-70
2022/04/13 09:11:39;;;;;;;7.08;3.00;;;;;;;;;;1694835;83;21036;-69
2022/04/13 09:14:07;;;;;;;8.43;2.95;;;;;;;;;;1695198;85;21064;-69
2022/04/13 09:16:35;;;;;;;6.65;2.72;;;;;;;;;;1694807;83;21148;-70
2022/04/13 09:19:04;;;;;;;6.37;2.83;;;;;;;;;;1695339;84;21115;-70
2022/04/13 09:21:32;;;;;;;7.03;2.58;;;;;;;;;;1685762;85;21180;-70
2022/04/13 09:24:00;;;;;;;5.85;2.42;;;;;;;;;;1694900;85;21064;-70
2022/04/13 09:26:27;;;;;;;6.42;2.37;;;;;;;;;;1694336;84;21103;-71
2022/04/13 09:28:54;;;;;;;5.70;2.85;;;;;;;;;;1694978;85;21100;-70
2022/04/13 09:31:20;;;;;;;4.08;2.42;;;;;;;;;;1695032;85;21511;-70
2022/04/13 09:33:49;;;;;;;5.22;2.90;;;;;;;;;;1694918;85;21083;-70
2022/04/13 09:36:16;;;;;;;7.75;3.27;;;;;;;;;;1695025;84;21053;-70
2022/04/13 09:38:43;;;;;;;5.70;2.85;;;;;;;;;;1695104;84;21060;-71
2022/04/13 09:41:10;;;;;;;7.87;3.30;;;;;;;;;;1694913;85;21048;-70
2022/04/13 09:43:36;;;;;;;6.87;3.10;;;;;;;;;;1708013;83;21540;-70
2022/04/13 09:46:02;;;;;;;6.62;3.25;;;;;;;;;;1730737;83;21062;-70
2022/04/13 09:48:30;;;;;;;6.17;3.10;;;;;;;;;;1710398;83;21062;-69
2022/04/13 09:50:57;;;;;;;6.30;2.80;;;;;;;;;;1717999;83;21542;-70
2022/04/13 09:53:23;;;;;;;10.32;4.05;;;;;;;;;;1723856;83;21096;-70
2022/04/13 09:55:51;;;;;;;7.30;3.05;;;;;;;;;;1730953;83;21068;-71
2022/04/13 09:58:18;;;;;;;6.33;2.75;;;;;;;;;;1724190;83;21017;-71
2022/04/13 10:00:45;;;;;;;7.33;2.87;;;;;;;;;;1731028;83;21095;-70
2022/04/13 10:03:15;;;;;;;5.33;2.50;;;;;;;;;;1729789;82;21096;-71
2022/04/13 10:05:42;;;;;;;5.28;2.30;;;;;;;;;;1723787;83;21017;-71
2022/04/13 10:08:09;;;;;;;5.35;2.17;;;;;;;;;;1724068;83;21033;-71
2022/04/13 10:10:41;;;;;;;3.00;1.90;;;;;;;;;;1723975;83;21520;-69
2022/04/13 10:13:08;;;;;;;4.40;2.22;;;;;;;;;;1724734;83;21009;-69
2022/04/13 10:15:34;;;;;;;4.80;2.42;;;;;;;;;;1724605;83;21060;-71
2022/04/13 10:18:00;;;;;;;3.65;2.10;;;;;;;;;;1723961;83;21054;-71
2022/04/13 10:20:46;;;;;;;3.52;2.25;;;;;;;;;;1723871;83;21068;-71
2022/04/13 10:23:14;;;;;;;3.83;2.10;;;;;;;;;;1724110;83;21149;-69
2022/04/13 10:25:40;;;;;;;4.03;2.00;;;;;;;;;;1725137;83;21048;-70
2022/04/13 10:28:07;;;;;;;2.65;1.80;;;;;;;;;;1731520;83;21014;-65
2022/04/13 10:30:35;;;;;;;7.33;2.05;;;;;;;;;;1725698;83;21508;-70
2022/04/13 10:33:06;;;;;;;4.10;2.02;;;;;;;;;;1730677;83;21088;-71
2022/04/13 10:35:33;;;;;;;4.05;2.05;;;;;;;;;;1728552;83;21076;-71
2022/04/13 10:38:01;;;;;;;4.65;2.08;;;;;;;;;;1722223;83;21044;-71
2022/04/13 10:40:30;;;;;;;6.00;2.55;;;;;;;;;;1722020;83;21009;-71
2022/04/13 10:43:00;;;;;;;2.33;1.62;;;;;;;;;;1722774;83;21564;-71
2022/04/13 10:45:27;;;;;;;3.52;2.00;;;;;;;;;;1724601;83;21052;-71
2022/04/13 10:48:01;;;;;;;2.72;1.80;;;;;;;;;;1723136;83;21087;-71
2022/04/13 10:50:32;;;;;;;2.98;1.72;;;;;;;;;;1723453;83;21618;-71
2022/04/13 10:53:23;;;;;;;2.47;1.67;;;;;;;;;;1726068;83;21072;-70
2022/04/13 10:55:59;;;;;;;3.35;1.80;;;;;;;;;;1732394;82;21005;-72
2022/04/13 10:58:29;;;;;;;1.50;1.40;;;;;;;;;;1716630;83;21132;-70
2022/04/13 11:01:03;;;;;;;2.50;1.30;;;;;;;;;;1722171;83;21041;-70
2022/04/13 11:03:35;;;;;;;1.20;1.10;;;;;;;;;;1722141;82;21159;-68
2022/04/13 11:06:06;;;;;;;3.77;1.60;;;;;;;;;;1722945;82;21583;-69
2022/04/13 11:08:52;;;;;;;2.52;1.55;;;;;;;;;;1752343;82;22045;-69
2022/04/13 11:11:21;;;;;;;1.47;1.10;;;;;;;;;;1730776;82;21520;-70
2022/04/13 11:13:49;;;;;;;1.60;1.40;;;;;;;;;;1722544;83;21140;-69
2022/04/13 11:16:19;;;;;;;2.00;1.57;;;;;;;;;;1725948;82;21006;-69
2022/04/13 11:19:04;;;;;;;3.60;1.47;;;;;;;;;;1723382;82;21072;-70
2022/04/13 11:21:34;;;;;;;1.52;1.35;;;;;;;;;;1724081;82;21080;-69
2022/04/13 11:24:00;;;;;;;1.75;1.60;;;;;;;;;;1724031;82;21528;-69
2022/04/13 11:26:27;;;;;;;1.67;1.45;;;;;;;;;;1726358;82;21003;-69
2022/04/13 11:32:09;;;;;;;1.67;1.50;;;;;;;;;;1812298;78;22840;-69
2022/04/13 11:34:49;;;;;;;1.42;1.20;;;;;;;;;;1765388;80;21075;-70
2022/04/13 11:37:19;;;;;;;1.00;1.00;;;;;;;;;;1777376;80;20980;-71
2022/04/13 11:40:00;;;;;;;1.42;1.05;;;;;;;;;;1788775;80;21706;-69
2022/04/13 11:42:28;;;;;;;1.52;1.40;;;;;;;;;;1761225;80;21241;-69
2022/04/13 11:45:01;;;;;;;1.60;1.35;;;;;;;;;;1763802;80;21103;-71
2022/04/13 11:47:39;;;;;;;2.62;1.80;;;;;;;;;;1729685;81;21036;-69
2022/04/13 11:50:18;;;;;;;2.27;1.30;;;;;;;;;;1707292;84;21013;-70
2022/04/13 11:53:01;;;;;;;1.82;1.40;;;;;;;;;;1724166;83;21020;-70
2022/04/13 11:55:36;;;;;;;1.43;1.20;;;;;;;;;;1727982;83;21071;-69
2022/04/13 11:58:08;;;;;;;2.12;1.47;;;;;;;;;;1727380;83;21492;-70
2022/04/13 12:00:38;;;;;;;1.70;1.40;;;;;;;;;;1728200;83;21594;-72
2022/04/13 12:03:14;;;;;;;1.87;1.17;;;;;;;;;;1729171;83;21472;-69
2022/04/13 12:05:44;;;;;;;3.12;1.57;;;;;;;;;;1705505;84;21076;-69
2022/04/13 12:08:11;;;;;;;2.60;1.45;;;;;;;;;;1704860;84;21052;-70
2022/04/13 12:10:37;;;;;;;3.67;1.30;;;;;;;;;;1705117;84;21031;-70
2022/04/13 12:13:05;;;;;;;1.52;1.20;;;;;;;;;;1705310;83;21114;-72
2022/04/13 12:15:44;;;;;;;1.90;1.32;;;;;;;;;;1709533;83;21026;-69
2022/04/13 12:18:11;;;;;;;1.90;1.42;;;;;;;;;;1702400;84;21057;-72
2022/04/13 12:20:37;;;;;;;2.40;1.77;;;;;;;;;;1701458;84;21017;-72
2022/04/13 12:23:25;;;;;;;1.60;1.20;;;;;;;;;;1696700;84;21014;-72
2022/04/13 12:25:51;;;;;;;4.37;2.17;;;;;;;;;;1688418;84;21531;-72
2022/04/13 12:28:19;;;;;;;4.15;1.50;;;;;;;;;;1703406;83;21109;-73
2022/04/13 12:30:59;;;;;;;2.60;1.50;;;;;;;;;;1691196;83;21065;-73
2022/04/13 12:33:27;;;;;;;2.08;1.77;;;;;;;;;;1752072;80;21511;-73
2022/04/13 12:35:58;;;;;;;2.45;1.50;;;;;;;;;;1752316;80;21042;-72
2022/04/13 12:38:26;;;;;;;2.00;1.50;;;;;;;;;;1747695;82;21036;-72
2022/04/13 12:41:05;;;;;;;3.00;1.70;;;;;;;;;;1747237;82;21092;-71
2022/04/13 12:43:31;;;;;;;3.17;1.72;;;;;;;;;;1747664;82;21520;-71
2022/04/13 12:45:58;;;;;;;3.75;2.20;;;;;;;;;;1750810;80;21039;-71
2022/04/13 12:48:27;;;;;;;2.87;1.92;;;;;;;;;;1753313;82;21567;-72
2022/04/13 12:50:57;;;;;;;4.70;2.40;;;;;;;;;;1767184;80;21554;-72
2022/04/13 12:53:24;;;;;;;5.00;2.35;;;;;;;;;;1734670;82;21021;-73
2022/04/13 12:55:51;;;;;;;2.72;1.82;;;;;;;;;;1746877;82;21021;-74
2022/04/13 12:58:18;;;;;;;4.33;2.30;;;;;;;;;;1746891;82;21497;-73
2022/04/13 13:00:45;;;;;;;5.80;2.12;;;;;;;;;;1750045;80;21040;-71
2022/04/13 13:03:11;;;;;;;5.72;2.60;;;;;;;;;;1750634;80;21028;-71
2022/04/13 13:05:38;;;;;;;4.90;2.77;;;;;;;;;;1743833;82;21031;-71
2022/04/13 13:08:04;;;;;;;6.72;2.40;;;;;;;;;;1746062;81;21000;-72
2022/04/13 13:10:32;;;;;;;5.40;2.35;;;;;;;;;;1717729;82;21000;-72
2022/04/13 13:13:12;;;;;;;4.72;2.30;;;;;;;;;;1753017;80;21040;-72
2022/04/13 13:15:38;;;;;;;4.80;2.17;;;;;;;;;;1787510;80;21091;-72
2022/04/13 13:18:06;;;;;;;4.65;2.00;;;;;;;;;;1787473;80;21055;-71
2022/04/13 13:20:35;;;;;;;6.03;2.92;;;;;;;;;;1787112;80;21075;-71
2022/04/13 13:23:08;;;;;;;5.17;2.72;;;;;;;;;;1785865;80;21075;-73
2022/04/13 13:25:41;;;;;;;7.03;2.75;;;;;;;;;;1734171;80;21067;-72
2022/04/13 13:28:07;;;;;;;6.20;2.62;;;;;;;;;;1759777;80;21044;-72
2022/04/13 13:30:35;;;;;;;6.22;2.60;;;;;;;;;;1780014;80;22067;-72
2022/04/13 13:33:02;;;;;;;7.53;2.55;;;;;;;;;;1742364;81;21110;-72
2022/04/13 13:35:29;;;;;;;5.15;2.37;;;;;;;;;;1763904;80;21039;-71
2022/04/13 13:38:10;;;;;;;4.62;2.52;;;;;;;;;;1764028;80;21004;-72
2022/04/13 13:40:43;;;;;;;5.08;2.98;;;;;;;;;;1773771;80;21515;-72
2022/04/13 13:43:07;;;;;;;4.35;2.10;;;;;;;;;;1778916;80;21011;-72
2022/04/13 13:45:36;;;;;;;4.72;2.10;;;;;;;;;;1745211;81;21480;-73
2022/04/13 13:48:03;;;;;;;3.83;2.00;;;;;;;;;;1771708;80;21079;-73
2022/04/13 13:50:33;;;;;;;3.37;1.90;;;;;;;;;;1772353;80;21812;-71
2022/04/13 13:53:00;;;;;;;4.25;2.42;;;;;;;;;;1718002;83;21584;-71
2022/04/13 13:55:28;;;;;;;3.35;2.10;;;;;;;;;;1687073;83;21056;-71
2022/04/13 13:57:59;;;;;;;3.62;2.00;;;;;;;;;;1731114;82;21028;-72
2022/04/13 14:00:24;;;;;;;4.20;2.20;;;;;;;;;;1720389;83;21056;-71
2022/04/13 14:02:52;;;;;;;3.70;2.22;;;;;;;;;;1737280;82;21604;-72
2022/04/13 14:05:19;;;;;;;5.97;2.42;;;;;;;;;;1694024;85;21640;-72
2022/04/13 14:07:47;;;;;;;6.85;2.87;;;;;;;;;;1693429;84;21041;-72
2022/04/13 14:10:13;;;;;;;5.05;2.40;;;;;;;;;;1696528;83;21017;-72
2022/04/13 14:12:41;;;;;;;6.28;2.60;;;;;;;;;;1693655;84;21089;-72
2022/04/13 14:15:11;;;;;;;5.47;2.52;;;;;;;;;;1694022;84;21006;-72
2022/04/13 14:17:41;;;;;;;2.62;1.98;;;;;;;;;;1699605;83;21052;-72
2022/04/13 14:20:08;;;;;;;3.10;2.00;;;;;;;;;;1710009;83;21087;-71
2022/04/13 14:22:36;;;;;;;2.77;2.02;;;;;;;;;;1703654;83;21600;-71
2022/04/13 14:25:03;;;;;;;2.83;1.90;;;;;;;;;;1700870;83;21018;-71
2022/04/13 14:27:29;;;;;;;3.60;2.12;;;;;;;;;;1707732;83;21075;-71
2022/04/13 14:29:58;;;;;;;2.67;1.92;;;;;;;;;;1699103;83;21009;-72
2022/04/13 14:32:25;;;;;;;4.25;2.10;;;;;;;;;;1707076;83;21045;-71
2022/04/13 14:34:52;;;;;;;3.37;2.10;;;;;;;;;;1698221;83;21022;-72
2022/04/13 14:37:18;;;;;;;5.33;2.75;;;;;;;;;;1705873;83;21512;-72
2022/04/13 14:39:44;;;;;;;5.05;2.83;;;;;;;;;;1688743;84;21059;-72
2022/04/13 14:42:10;;;;;;;2.75;1.77;;;;;;;;;;1704505;84;21524;-72
2022/04/13 14:44:37;;;;;;;1.95;1.72;;;;;;;;;;1703338;84;21069;-71
2022/04/13 14:47:03;;;;;;;3.30;2.00;;;;;;;;;;1689587;84;21545;-71
2022/04/13 14:49:30;;;;;;;2.65;1.95;;;;;;;;;;1694187;84;21109;-73
2022/04/13 14:51:57;;;;;;;4.80;2.00;;;;;;;;;;1688376;83;20995;-73
2022/04/13 14:54:23;;;;;;;3.17;1.90;;;;;;;;;;1696565;84;21005;-72